Briefing drone pour Val-de-reuil

Rechercher une autre localisation

Conditions de vol :


Nous sommes le : Samedi 27 février 2021
Il est 00:35 UTC (01:35 LT)

Lever de soleil : 06:14 UTC (07:14 LT)
Coucher de soleil : 18:01 UTC (19:01 LT)

Météo

L'essentiel des conditions de vol

VIGILANCE MÉTÉO FRANCE - Eure (27)
Pas de vigilances particulieres
CARTE TEMSI
CARTES DES FRONTS
METAR de LFOP
LFOP 270030Z AUTO 03004KT CAVOK 03/00 Q1039

Date d'émission: 27/02/2021
Heure d'émission: 00:30 UTC
Vent: 030° pour 4 KT (7 km/h)
Visibilité horizontale: > 10 km
Plafond : Plafond et visibilité OK (CAVOK)
Température: 3 °C
Point de rosée: 0 °C
Humidité: 81%
Pression (QNH): 1039 hPa
TAF de LFOP
LFOP 262118Z 2621/2718 CNL

Conditions prévues :

Heure d'émission : Bulletin éffectué le 26 à 21:00 UTC
Prévision : Valide du 26 a 21:00 UTC au 27 a 18:00 UTC
Nuages : à 0ft (0 m)
WEBCAM POUR VAL-DE-REUIL

Réglementation

Voler en sécurité

CARTES AERONAUTIQUE 1/500.000
CARTES VAC (LFOP)
SUP AIP




Chargement des AIP...
NOTAM (VAL-DE-REUIL + Terrain à proximité / FIR )




Chargement des NOTAMS...
CONTACT PREFECTURE 27


Avertissement : Les données mises à disposition sont indicatives. Oxygène Drone ne pourra être tenu responsable de dégâts causés aux biens et aux personnes.